WBKW

Details ICAO WBKW (TWU)
Name Tawau
Region Brunei and Malaysia
Timezone Asia/Kuching (UTC+8.0)
Plans Departing 18
Arriving 25
Stats Elevation 57 ft / 17 m (AMSL)
Location 4.313370° 118.121955°
Runways 1
Magnetic Variation 0.314° W
Sunrise 2018-05-26 21:55:46 UTC / 2018-05-27 05:55:46 Local
Sunset 2018-05-27 10:16:22 UTC / 2018-05-27 18:16:22 Local
Advertisement - Login to hide

Runways

ID Width Length Bearing (true) Bearing (mag) Surface Threshold Offset Overrun Length
06 155 ft / 47 m 8,826 ft / 2,690 m 58.02° 58.33° Asphalt 0 ft / 0 m 195 ft / 59 m
24 155 ft / 47 m 8,826 ft / 2,690 m 238.02° 238.33° Asphalt 0 ft / 0 m 195 ft / 59 m

Approach Navaids

Runway Type Ident Frequency Range Bearing (true) Bearing (mag) Slope Elevation
24 Localiser ITWU 111.30 MHz 18 nm / 33 km 238.18° 238.50° - 57 ft / 17 m (AMSL)
24 Glidescope ITWU 111.30 MHz 10 nm / 19 km 238.02° 238.33° 3.00° 87 ft / 27 m (AMSL)
24 DME ITWU 111.30 MHz 18 nm / 33 km - - - 87 ft / 27 m (AMSL)

Map

Weather


0- 5 10 15 20 25 30 35+ Temperature / ° C

Clouds and Precipitation
Forecast for 2018-05-26 18:00 UTC. Updated 5 hours ago

Ground ~20,000 ft ~40,000 ft Winds

METAR

WBKW 262200Z VRB03KT 9999 FEW016CB BKN300 25/24 Q1009

TAF

TAF WBKW 261100Z 2612/2712 VRB03KT 9999 FEW017

Frequencies

Ground 121.90 MHz GND
Approach 123.55 MHz APP
Tower 122.50 MHz TWR
Warning: Do not use this data for real-world aviation or navigation. No guarantee of current accuracy is given.